createdAt,value
2023-03-12T00:00:20.412Z,-0.10
2023-03-12T00:02:48.795Z,-0.10
2023-03-12T00:05:16.684Z,-0.20
2023-03-12T00:07:44.529Z,-0.20
2023-03-12T00:10:12.594Z,-0.20
2023-03-12T00:12:40.463Z,-0.20
2023-03-12T00:15:08.900Z,-0.20
2023-03-12T00:17:36.824Z,-0.20
2023-03-12T00:20:06.237Z,-0.20
2023-03-12T00:22:34.714Z,-0.30
2023-03-12T00:25:02.576Z,-0.30
2023-03-12T00:27:30.526Z,-0.30
2023-03-12T00:29:58.413Z,-0.40
2023-03-12T00:32:26.383Z,-0.30
2023-03-12T00:34:55.187Z,-0.40
2023-03-12T00:37:23.621Z,-0.40
2023-03-12T00:39:51.531Z,-0.50
2023-03-12T00:42:19.901Z,-0.40
2023-03-12T00:44:48.522Z,-0.50
2023-03-12T00:47:16.352Z,-0.50
2023-03-12T00:49:44.222Z,-0.50
2023-03-12T00:52:12.103Z,-0.50
2023-03-12T00:54:39.913Z,-0.60
2023-03-12T00:57:07.710Z,-0.60
2023-03-12T00:59:37.120Z,-0.60
2023-03-12T01:02:04.920Z,-0.60
2023-03-12T01:04:32.832Z,-0.60
2023-03-12T01:07:00.598Z,-0.60
2023-03-12T01:09:28.546Z,-0.60
2023-03-12T01:11:56.392Z,-0.60
2023-03-12T01:14:25.231Z,-0.60
2023-03-12T01:16:53.119Z,-0.60
2023-03-12T01:19:21.528Z,-0.60
2023-03-12T01:21:49.516Z,-0.60
2023-03-12T01:24:17.402Z,-0.60
2023-03-12T01:26:45.599Z,-0.60
2023-03-12T01:29:13.448Z,-0.70
2023-03-12T01:31:41.288Z,-0.70
2023-03-12T01:34:11.396Z,-0.70
2023-03-12T01:36:39.504Z,-0.70
2023-03-12T01:39:07.424Z,-0.70
2023-03-12T01:41:35.399Z,-0.70
2023-03-12T01:51:06.119Z,-0.80
2023-03-12T01:53:34.445Z,-0.80
2023-03-12T01:56:02.818Z,-0.80
2023-03-12T01:58:33.861Z,-0.80
2023-03-12T02:01:01.817Z,-0.80
2023-03-12T02:03:30.928Z,-0.80
2023-03-12T02:06:05.941Z,-0.80
2023-03-12T02:08:36.771Z,-0.80
2023-03-12T02:11:04.756Z,-0.80
2023-03-12T02:13:33.023Z,-0.80
2023-03-12T02:16:01.859Z,-0.80
2023-03-12T02:18:30.356Z,-0.80
2023-03-12T02:21:17.179Z,-0.80
2023-03-12T02:23:54.438Z,-0.70
2023-03-12T02:26:23.405Z,-0.70
2023-03-12T02:28:51.496Z,-0.70
2023-03-12T02:31:21.796Z,-0.70
2023-03-12T02:33:49.933Z,-0.60
2023-03-12T02:36:17.825Z,-0.60
2023-03-12T02:38:47.124Z,-0.60
2023-03-12T02:41:21.146Z,-0.60
2023-03-12T02:44:09.348Z,-0.60
2023-03-12T02:46:43.036Z,-0.60
2023-03-12T02:49:13.615Z,-0.60
2023-03-12T02:51:42.713Z,-0.60
2023-03-12T02:54:10.964Z,-0.50
2023-03-12T02:56:39.436Z,-0.50
2023-03-12T02:59:10.248Z,-0.50
2023-03-12T03:01:41.957Z,-0.50
2023-03-12T03:04:11.044Z,-0.50
2023-03-12T03:06:40.141Z,-0.50
2023-03-12T03:09:08.290Z,-0.50
2023-03-12T03:11:36.507Z,-0.50
2023-03-12T03:14:08.032Z,-0.50
2023-03-12T03:16:36.460Z,-0.50
2023-03-12T03:19:04.705Z,-0.40
2023-03-12T03:21:32.949Z,-0.40
2023-03-12T03:24:00.774Z,-0.50
2023-03-12T03:26:28.649Z,-0.40
2023-03-12T03:28:56.647Z,-0.40
2023-03-12T03:31:24.541Z,-0.40
2023-03-12T03:33:52.541Z,-0.40
2023-03-12T03:36:20.788Z,-0.40
2023-03-12T03:38:57.128Z,-0.40
2023-03-12T03:41:25.496Z,-0.50
2023-03-12T03:43:56.917Z,-0.40
2023-03-12T03:46:25.295Z,-0.40
2023-03-12T03:48:58.823Z,-0.40
2023-03-12T03:51:27.936Z,-0.40
2023-03-12T03:54:01.434Z,-0.40
2023-03-12T03:56:30.292Z,-0.40
2023-03-12T03:58:59.954Z,-0.30
2023-03-12T04:01:28.394Z,-0.30
2023-03-12T04:03:57.536Z,-0.30
2023-03-12T04:06:25.623Z,-0.30
2023-03-12T04:08:53.586Z,-0.30
2023-03-12T04:11:25.025Z,-0.30
2023-03-12T04:13:58.182Z,-0.30
2023-03-12T04:16:29.389Z,-0.30
2023-03-12T04:18:58.636Z,-0.30
2023-03-12T04:21:27.754Z,-0.30
2023-03-12T04:23:55.874Z,-0.30
2023-03-12T04:26:28.228Z,-0.30
2023-03-12T04:28:57.203Z,-0.30
2023-03-12T04:31:25.421Z,-0.30
2023-03-12T04:33:53.263Z,-0.30
2023-03-12T04:36:24.365Z,-0.30
2023-03-12T04:38:53.775Z,-0.30
2023-03-12T04:41:26.836Z,-0.30
2023-03-12T04:44:12.836Z,-0.30
2023-03-12T04:46:41.746Z,-0.30
2023-03-12T04:49:12.045Z,-0.30
2023-03-12T04:51:41.871Z,-0.30
2023-03-12T04:54:10.085Z,-0.30
2023-03-12T04:56:47.020Z,-0.30
2023-03-12T04:59:18.678Z,-0.20
2023-03-12T05:01:47.340Z,-0.20
2023-03-12T05:04:22.836Z,-0.30
2023-03-12T05:06:51.563Z,-0.30
2023-03-12T05:09:19.402Z,-0.30
2023-03-12T05:11:47.400Z,-0.20
2023-03-12T05:14:18.432Z,-0.30
2023-03-12T05:16:48.296Z,-0.20
2023-03-12T05:19:16.422Z,-0.30
2023-03-12T05:21:45.005Z,-0.30
2023-03-12T05:24:13.277Z,-0.30
2023-03-12T05:26:41.149Z,-0.30
2023-03-12T05:29:16.279Z,-0.30
2023-03-12T05:31:44.868Z,-0.30
2023-03-12T05:34:14.576Z,-0.30
2023-03-12T05:36:44.877Z,-0.30
2023-03-12T05:39:14.966Z,-0.30
2023-03-12T05:41:43.475Z,-0.30
2023-03-12T05:44:17.098Z,-0.30
2023-03-12T05:46:48.747Z,-0.30
2023-03-12T05:49:16.769Z,-0.30
2023-03-12T05:51:44.856Z,-0.30
2023-03-12T05:54:12.767Z,-0.30
2023-03-12T05:56:40.622Z,-0.30
2023-03-12T05:59:13.633Z,-0.30
2023-03-12T06:01:45.362Z,-0.30
2023-03-12T06:04:13.624Z,-0.20
2023-03-12T06:06:42.770Z,-0.20
2023-03-12T06:09:10.753Z,-0.20
2023-03-12T06:11:43.543Z,-0.10
2023-03-12T06:14:11.745Z,-0.10
2023-03-12T06:16:39.616Z,0.00
2023-03-12T06:19:08.993Z,0.00
2023-03-12T06:21:37.188Z,0.10
2023-03-12T06:24:07.985Z,0.20
2023-03-12T06:26:55.909Z,0.30
2023-03-12T06:29:23.792Z,0.40
2023-03-12T06:31:53.384Z,0.50
2023-03-12T06:34:21.366Z,0.50
2023-03-12T06:36:49.199Z,0.50
2023-03-12T06:39:17.077Z,0.60
2023-03-12T06:41:44.949Z,0.70
2023-03-12T06:44:12.733Z,0.70
2023-03-12T06:47:04.110Z,0.80
2023-03-12T06:52:15.087Z,1.10
2023-03-12T06:54:43.141Z,1.30
2023-03-12T06:57:11.330Z,1.40
2023-03-12T06:59:39.275Z,1.60
2023-03-12T07:02:07.672Z,2.10
2023-03-12T07:04:35.675Z,2.40
2023-03-12T07:07:03.560Z,2.50
2023-03-12T07:09:31.424Z,2.40
2023-03-12T07:11:59.215Z,2.30
2023-03-12T07:14:27.771Z,2.20
2023-03-12T07:16:55.653Z,2.10
2023-03-12T07:19:23.415Z,2.10
2023-03-12T07:21:51.220Z,2.00
2023-03-12T07:24:19.015Z,2.00
2023-03-12T07:26:47.160Z,2.10
2023-03-12T07:29:15.003Z,2.10
2023-03-12T07:31:42.896Z,2.10
2023-03-12T07:34:10.833Z,2.10
2023-03-12T07:36:38.882Z,2.20
2023-03-12T07:39:07.187Z,2.30
2023-03-12T07:41:36.375Z,2.40
2023-03-12T07:44:07.662Z,2.50
2023-03-12T07:46:39.501Z,2.50
2023-03-12T07:49:07.367Z,2.50
2023-03-12T07:51:35.176Z,2.40
2023-03-12T07:54:03.047Z,2.40
2023-03-12T07:56:31.040Z,2.40
2023-03-12T07:58:59.171Z,2.40
2023-03-12T08:01:33.096Z,2.60
2023-03-12T08:04:01.267Z,3.00
2023-03-12T08:06:29.966Z,3.30
2023-03-12T08:08:58.006Z,3.30
2023-03-12T08:11:25.872Z,3.30
2023-03-12T08:13:53.875Z,3.20
2023-03-12T08:16:24.150Z,3.20
2023-03-12T08:18:52.179Z,3.10
2023-03-12T08:21:23.000Z,3.20
2023-03-12T08:23:51.935Z,3.10
2023-03-12T08:26:19.862Z,3.10
2023-03-12T08:28:47.801Z,3.20
2023-03-12T08:31:15.948Z,3.20
2023-03-12T08:33:44.727Z,3.30
2023-03-12T08:36:14.304Z,3.40
2023-03-12T08:38:42.163Z,3.50
2023-03-12T08:41:10.110Z,3.50
2023-03-12T08:43:37.968Z,3.60
2023-03-12T08:46:06.058Z,3.80
2023-03-12T08:48:34.455Z,3.80
2023-03-12T08:51:05.165Z,3.80
2023-03-12T08:53:33.907Z,3.70
2023-03-12T08:56:02.302Z,3.60
2023-03-12T08:58:30.559Z,3.60
2023-03-12T09:00:58.786Z,3.70
2023-03-12T09:03:26.964Z,3.70
2023-03-12T09:06:05.228Z,3.70
2023-03-12T09:08:35.086Z,3.80
2023-03-12T09:11:03.583Z,3.90
2023-03-12T09:13:50.769Z,4.00
2023-03-12T09:16:19.511Z,4.10
2023-03-12T09:18:47.384Z,4.30
2023-03-12T09:21:15.190Z,4.70
2023-03-12T09:23:43.109Z,5.00
2023-03-12T09:26:14.414Z,5.20
2023-03-12T09:28:45.891Z,5.40
2023-03-12T09:31:17.141Z,5.90
2023-03-12T09:33:45.121Z,6.30
2023-03-12T09:36:13.040Z,6.50
2023-03-12T09:38:41.000Z,6.50
2023-03-12T09:41:17.266Z,6.30
2023-03-12T09:43:48.834Z,6.20
2023-03-12T09:46:18.972Z,6.10
2023-03-12T09:48:47.682Z,6.00
2023-03-12T09:51:23.536Z,6.00
2023-03-12T09:53:55.707Z,6.00
2023-03-12T09:56:24.061Z,6.00
2023-03-12T09:58:55.643Z,5.90
2023-03-12T10:01:38.320Z,5.90
2023-03-12T10:04:24.745Z,5.90
2023-03-12T10:06:52.612Z,5.90
2023-03-12T10:09:28.130Z,6.00
2023-03-12T10:12:00.875Z,6.00
2023-03-12T10:14:31.729Z,6.00
2023-03-12T10:17:05.246Z,5.90
2023-03-12T10:19:39.364Z,5.90
2023-03-12T10:22:22.550Z,6.00
2023-03-12T10:24:50.385Z,6.00
2023-03-12T10:27:18.807Z,6.00
2023-03-12T10:29:48.888Z,6.10
2023-03-12T10:32:18.750Z,6.10
2023-03-12T10:35:00.401Z,6.10
2023-03-12T10:37:31.432Z,6.00
2023-03-12T10:40:02.078Z,5.90
2023-03-12T10:42:30.534Z,5.80
2023-03-12T10:45:17.175Z,5.80
2023-03-12T10:47:45.902Z,5.80
2023-03-12T10:50:27.218Z,5.80
2023-03-12T10:53:14.768Z,5.80
2023-03-12T10:55:47.795Z,5.80
2023-03-12T10:58:26.460Z,5.70
2023-03-12T11:00:58.722Z,5.60
2023-03-12T11:03:27.092Z,5.70
2023-03-12T11:05:56.250Z,5.70
2023-03-12T11:08:28.236Z,5.80
2023-03-12T11:10:56.903Z,5.90
2023-03-12T11:13:29.505Z,5.90
2023-03-12T11:15:59.448Z,5.90
2023-03-12T11:18:27.448Z,5.90
2023-03-12T11:21:03.329Z,5.90
2023-03-12T11:23:31.823Z,6.00
2023-03-12T11:26:02.179Z,5.90
2023-03-12T11:28:37.225Z,5.90
2023-03-12T11:31:07.645Z,5.90
2023-03-12T11:33:35.634Z,5.90
2023-03-12T11:36:10.444Z,6.00
2023-03-12T11:38:41.285Z,5.90
2023-03-12T11:41:09.115Z,5.90
2023-03-12T11:43:49.570Z,5.90
2023-03-12T11:46:38.445Z,5.90
2023-03-12T11:49:15.268Z,6.00
2023-03-12T11:52:02.578Z,6.00
2023-03-12T11:54:49.164Z,6.00
2023-03-12T11:57:25.898Z,6.00
2023-03-12T12:00:15.852Z,6.00
2023-03-12T12:03:00.536Z,6.00
2023-03-12T12:05:43.272Z,6.10
2023-03-12T12:08:25.811Z,6.10
2023-03-12T12:10:59.065Z,6.10
2023-03-12T12:13:38.031Z,6.10
2023-03-12T12:16:11.984Z,6.10
2023-03-12T12:18:51.835Z,6.20
2023-03-12T12:21:35.139Z,6.30
2023-03-12T12:24:41.550Z,6.30
2023-03-12T12:27:15.264Z,6.30
2023-03-12T12:29:52.969Z,6.30
2023-03-12T12:32:28.848Z,6.30
2023-03-12T12:35:02.860Z,6.40
2023-03-12T12:37:49.627Z,6.40
2023-03-12T12:40:30.430Z,6.50
2023-03-12T12:43:01.343Z,6.50
2023-03-12T12:45:31.129Z,6.40
2023-03-12T12:48:25.540Z,6.30
2023-03-12T12:51:02.374Z,6.40
2023-03-12T12:53:33.219Z,6.40
2023-03-12T12:56:10.619Z,6.50
2023-03-12T12:58:44.641Z,6.40
2023-03-12T13:01:13.111Z,6.40
2023-03-12T13:03:41.137Z,6.40
2023-03-12T13:06:09.309Z,6.30
2023-03-12T13:08:37.152Z,6.20
2023-03-12T13:11:18.279Z,6.20
2023-03-12T13:13:53.324Z,6.30
2023-03-12T13:16:34.428Z,6.30
2023-03-12T13:19:08.177Z,6.20
2023-03-12T13:21:56.387Z,6.20
2023-03-12T13:24:31.512Z,6.30
2023-03-12T13:27:02.315Z,6.30
2023-03-12T13:29:30.191Z,6.40
2023-03-12T13:31:58.456Z,6.50
2023-03-12T13:34:29.899Z,6.40
2023-03-12T13:37:02.297Z,6.40
2023-03-12T13:39:33.858Z,6.40
2023-03-12T13:42:02.516Z,6.50
2023-03-12T13:44:32.665Z,6.60
2023-03-12T13:47:20.187Z,6.70
2023-03-12T13:49:53.398Z,6.70
2023-03-12T13:52:26.300Z,6.80
2023-03-12T13:55:17.569Z,6.80
2023-03-12T13:57:46.817Z,6.80
2023-03-12T14:00:18.112Z,6.80
2023-03-12T14:02:58.083Z,6.80
2023-03-12T14:05:26.208Z,6.90
2023-03-12T14:08:00.636Z,7.00
2023-03-12T14:10:48.767Z,7.10
2023-03-12T14:13:52.797Z,7.20
2023-03-12T14:16:20.678Z,7.30
2023-03-12T14:18:49.329Z,7.40
2023-03-12T14:21:18.480Z,7.40
2023-03-12T14:23:55.936Z,7.30
2023-03-12T14:26:31.802Z,7.40
2023-03-12T14:29:07.043Z,7.50
2023-03-12T14:31:36.414Z,7.50
2023-03-12T14:34:07.203Z,7.70
2023-03-12T14:36:54.180Z,7.80
2023-03-12T14:39:40.587Z,7.90
2023-03-12T14:42:09.336Z,8.20
2023-03-12T14:44:38.578Z,8.30
2023-03-12T14:47:08.700Z,8.50
2023-03-12T14:49:41.000Z,8.50
2023-03-12T14:52:12.294Z,8.50
2023-03-12T14:54:40.827Z,8.50
2023-03-12T14:57:14.160Z,8.50
2023-03-12T14:59:42.051Z,8.40
2023-03-12T15:02:14.995Z,8.40
2023-03-12T15:04:42.927Z,8.40
2023-03-12T15:07:12.481Z,8.30
2023-03-12T15:09:43.318Z,8.40
2023-03-12T15:12:20.574Z,8.40
2023-03-12T15:14:49.076Z,8.40
2023-03-12T15:17:19.049Z,8.40
2023-03-12T15:19:47.743Z,8.40
2023-03-12T15:22:20.411Z,8.40
2023-03-12T15:24:48.313Z,8.40
2023-03-12T15:27:22.047Z,8.50
2023-03-12T15:29:50.049Z,8.60
2023-03-12T15:32:21.618Z,8.60
2023-03-12T15:34:49.647Z,8.70
2023-03-12T15:37:39.691Z,8.80
2023-03-12T15:40:17.576Z,8.80
2023-03-12T15:42:47.218Z,8.80
2023-03-12T15:45:23.317Z,8.90
2023-03-12T15:47:52.420Z,8.90
2023-03-12T15:50:22.879Z,8.90
2023-03-12T15:53:04.493Z,9.00
2023-03-12T15:55:33.531Z,9.00
2023-03-12T15:58:01.794Z,9.10
2023-03-12T16:00:50.255Z,9.10
2023-03-12T16:03:19.455Z,9.10
2023-03-12T16:05:47.927Z,9.10
2023-03-12T16:08:23.208Z,9.10
2023-03-12T16:10:51.344Z,9.10
2023-03-12T16:13:21.529Z,9.10
2023-03-12T16:15:49.750Z,9.10
2023-03-12T16:18:18.911Z,9.10
2023-03-12T16:20:47.718Z,9.00
2023-03-12T16:23:16.426Z,9.00
2023-03-12T16:25:48.291Z,9.00
2023-03-12T16:28:17.867Z,9.00
2023-03-12T16:30:46.359Z,9.00
2023-03-12T16:33:15.275Z,9.00
2023-03-12T16:35:43.262Z,8.90
2023-03-12T16:38:11.231Z,8.90
2023-03-12T16:40:40.186Z,8.90
2023-03-12T16:43:08.974Z,8.90
2023-03-12T16:45:37.944Z,8.90
2023-03-12T16:48:06.835Z,8.90
2023-03-12T16:50:35.237Z,8.80
2023-03-12T16:53:06.116Z,8.80
2023-03-12T16:55:44.332Z,8.80
2023-03-12T16:58:13.283Z,8.80
2023-03-12T17:00:44.082Z,8.80
2023-03-12T17:03:30.729Z,8.80
2023-03-12T17:06:01.259Z,8.70
2023-03-12T17:08:29.980Z,8.70
2023-03-12T17:10:58.503Z,8.70
2023-03-12T17:13:29.871Z,8.70
2023-03-12T17:15:57.949Z,8.60
2023-03-12T17:18:29.081Z,8.50
2023-03-12T17:20:58.080Z,8.60
2023-03-12T17:23:25.951Z,8.50
2023-03-12T17:25:53.833Z,8.60
2023-03-12T17:28:21.682Z,8.60
2023-03-12T17:30:49.600Z,8.60
2023-03-12T17:33:18.376Z,8.70
2023-03-12T17:35:46.331Z,8.70
2023-03-12T17:38:14.737Z,8.70
2023-03-12T17:40:43.708Z,8.70
2023-03-12T17:43:11.863Z,8.60
2023-03-12T17:45:40.032Z,8.60
2023-03-12T17:48:07.950Z,8.60
2023-03-12T17:50:35.816Z,8.50
2023-03-12T17:53:03.594Z,8.50
2023-03-12T17:55:31.507Z,8.40
2023-03-12T17:57:59.582Z,8.30
2023-03-12T18:00:27.471Z,8.30
2023-03-12T18:02:55.399Z,8.20
2023-03-12T18:05:23.338Z,8.10
2023-03-12T18:07:52.116Z,8.10
2023-03-12T18:10:20.040Z,8.10
2023-03-12T18:12:47.881Z,8.10
2023-03-12T18:15:17.776Z,8.00
2023-03-12T18:17:46.076Z,8.00
2023-03-12T18:20:28.742Z,8.00
2023-03-12T18:23:03.927Z,7.90
2023-03-12T18:25:31.753Z,7.90
2023-03-12T18:27:59.590Z,7.90
2023-03-12T18:30:29.291Z,7.90
2023-03-12T18:32:57.164Z,8.00
2023-03-12T18:35:29.941Z,8.00
2023-03-12T18:37:57.876Z,8.00
2023-03-12T18:40:25.841Z,8.00
2023-03-12T18:42:53.759Z,8.00
2023-03-12T18:45:21.570Z,8.10
2023-03-12T18:47:51.504Z,8.10
2023-03-12T18:50:19.387Z,8.10
2023-03-12T18:52:47.389Z,8.20
2023-03-12T18:55:18.206Z,8.20
2023-03-12T18:57:47.159Z,8.20
2023-03-12T19:00:17.002Z,8.20
2023-03-12T19:02:47.722Z,8.10
2023-03-12T19:05:15.934Z,8.10
2023-03-12T19:07:43.921Z,8.20
2023-03-12T19:10:12.406Z,8.20
2023-03-12T19:12:51.464Z,8.20
2023-03-12T19:15:20.708Z,8.30
2023-03-12T19:17:48.516Z,8.30
2023-03-12T19:20:16.798Z,8.30
2023-03-12T19:22:44.791Z,8.30
2023-03-12T19:25:12.846Z,8.40
2023-03-12T19:27:43.119Z,8.40
2023-03-12T19:30:11.414Z,8.40
2023-03-12T19:32:44.070Z,8.40
2023-03-12T19:35:13.418Z,8.40
2023-03-12T19:37:41.717Z,8.40
2023-03-12T19:40:11.709Z,8.40
2023-03-12T19:42:39.650Z,8.40
2023-03-12T19:45:07.847Z,8.40
2023-03-12T19:47:35.948Z,8.50
2023-03-12T19:50:04.252Z,8.50
2023-03-12T19:52:32.128Z,8.50
2023-03-12T19:55:04.850Z,8.50
2023-03-12T19:57:33.545Z,8.50
2023-03-12T20:00:01.393Z,8.50
2023-03-12T20:02:32.358Z,8.40
2023-03-12T20:05:00.261Z,8.40
2023-03-12T20:07:28.434Z,8.40
2023-03-12T20:09:56.344Z,8.40
2023-03-12T20:12:24.501Z,8.40
2023-03-12T20:14:52.378Z,8.40
2023-03-12T20:17:20.356Z,8.40
2023-03-12T20:19:48.164Z,8.40
2023-03-12T20:22:16.321Z,8.50
2023-03-12T20:24:44.116Z,8.50
2023-03-12T20:27:11.983Z,8.60
2023-03-12T20:29:40.013Z,8.60
2023-03-12T20:32:07.998Z,8.60
2023-03-12T20:34:35.958Z,8.60
2023-03-12T20:37:03.815Z,8.60
2023-03-12T20:39:31.967Z,8.50
2023-03-12T20:41:59.943Z,8.60
2023-03-12T20:44:27.716Z,8.60
2023-03-12T20:46:55.606Z,8.60
2023-03-12T20:49:23.444Z,8.60
2023-03-12T20:51:51.402Z,8.60
2023-03-12T20:54:19.231Z,8.60
2023-03-12T20:56:47.235Z,8.60
2023-03-12T20:59:15.496Z,8.60
2023-03-12T21:01:43.525Z,8.50
2023-03-12T21:04:11.489Z,8.50
2023-03-12T21:06:39.374Z,8.50
2023-03-12T21:09:10.487Z,8.50
2023-03-12T21:11:40.741Z,8.50
2023-03-12T21:14:08.599Z,8.40
2023-03-12T21:16:37.167Z,8.30
2023-03-12T21:19:04.972Z,8.20
2023-03-12T21:21:36.595Z,8.20
2023-03-12T21:24:07.782Z,8.10
2023-03-12T21:26:38.338Z,8.10
2023-03-12T21:29:06.631Z,8.10
2023-03-12T21:31:35.113Z,8.10
2023-03-12T21:34:02.936Z,8.10
2023-03-12T21:36:31.206Z,8.10
2023-03-12T21:39:03.078Z,8.00
2023-03-12T21:41:31.327Z,8.10
2023-03-12T21:44:01.385Z,8.10
2023-03-12T21:46:31.128Z,8.10
2023-03-12T21:48:59.882Z,8.10
2023-03-12T21:51:27.969Z,8.10
2023-03-12T21:53:56.561Z,8.10
2023-03-12T21:56:27.479Z,8.10
2023-03-12T21:58:59.199Z,8.10
2023-03-12T22:01:27.152Z,8.00
2023-03-12T22:03:55.094Z,8.00
2023-03-12T22:06:23.112Z,8.10
2023-03-12T22:08:51.151Z,8.10
2023-03-12T22:11:19.297Z,8.10
2023-03-12T22:13:49.646Z,8.10
2023-03-12T22:16:18.177Z,8.10
2023-03-12T22:18:46.998Z,8.10
2023-03-12T22:21:16.818Z,8.10
2023-03-12T22:23:44.671Z,8.10
2023-03-12T22:26:12.723Z,8.10
2023-03-12T22:28:40.946Z,8.10
2023-03-12T22:31:09.666Z,8.10
2023-03-12T22:33:38.629Z,8.10
2023-03-12T22:36:08.191Z,8.10
2023-03-12T22:38:37.717Z,8.10
2023-03-12T22:41:32.008Z,8.10
2023-03-12T22:44:07.772Z,8.10
2023-03-12T22:46:36.232Z,8.10
2023-03-12T22:49:04.977Z,8.10
2023-03-12T22:51:33.091Z,8.10
2023-03-12T22:54:00.963Z,8.10
2023-03-12T22:56:28.879Z,8.00
2023-03-12T22:58:56.778Z,8.10
2023-03-12T23:01:25.100Z,8.00
2023-03-12T23:03:53.049Z,8.00
2023-03-12T23:06:22.251Z,8.00
2023-03-12T23:08:50.116Z,8.00
2023-03-12T23:11:18.451Z,8.00
2023-03-12T23:13:46.908Z,8.00
2023-03-12T23:16:17.185Z,8.00
2023-03-12T23:18:45.591Z,8.00
2023-03-12T23:21:14.632Z,7.90
2023-03-12T23:23:45.900Z,7.90
2023-03-12T23:26:15.772Z,7.90
2023-03-12T23:28:44.022Z,7.90
2023-03-12T23:31:11.910Z,7.80
2023-03-12T23:33:39.798Z,7.80
2023-03-12T23:36:15.016Z,7.80
2023-03-12T23:38:43.195Z,7.70
2023-03-12T23:41:15.286Z,7.60
2023-03-12T23:43:43.402Z,7.60
2023-03-12T23:46:12.313Z,7.50
2023-03-12T23:48:44.488Z,7.50
2023-03-12T23:51:19.179Z,7.30
2023-03-12T23:53:48.896Z,7.30
2023-03-12T23:56:18.291Z,7.10
2023-03-12T23:58:46.411Z,7.00
